Detall de PIREP

Printer-friendly versionPDF version

[2014/03/23 08:18:00]
Flight IATA:CT3105
Pilot Number:012
Company ICAO:CAT
Aircraft Type:F28/A
PAX:85
Departing Airport: LFMP
Destination Airport: LIEA
Alternate Airport:LIEO
Online: VATSIM
Route:FJR UM731 PELOS
Flight Level:F250
No Slew and time accel
No pause
Crash detect
Detect pilot in Cockpit between each 30 and 45 minutes
08:18 Zero fuel Weight: 54658 Lbs, Fuel Weight: 8514 Lbs
08:18 VATSIM:LFMP 230800Z 30014KT 270V340 9999 SCT033 09/02 Q1012 NOSIG
08:18 VATSIM:LIEA 230750Z 27006KT 9999 FEW013 SCT020 12/11 Q1009
08:18 VOICE CATALONIAN
08:24 Parking Brakes off
08:28 Take-off
08:28 Take off Weight: 62829 Lbs
08:28 Wind: 314º @ 014 Knots Heading: 325º
08:28 POS N42º 44´ 52´´ E002º 51´ 59´´
08:28 Gear Up: 149 Knots
08:28 Flaps:1 at 149 Knots
08:28 Flaps:0 at 160 Knots
08:40 TOC
08:40 Fuel Weight: 6494 Lb
08:43 Wind:265º@026 Knots Heading: 138º Ground Speed:409 Knots Altitude 24947 ft
08:58 Wind:242º@048 Knots Heading: 131º Ground Speed: 422 Knots Altitude 24757 ft
09:10 TOD
09:10 Fuel Weight: 4214 Lb
09:13 Wind:244º@052 Knots Heading: 133º Ground Speed: 384 Knots Altitude 19350 ft
09:22 Flaps:1 at 210 Knots
09:23 Gear Down: 192 Knots
09:23 Flaps:2 at 185 Knots
09:23 Flaps:3 at 171 Knots
09:24 Flaps:4 at 170 Knots
09:24 Flaps:5 at 166 Knots
09:25 TouchDown:Rate -283 ft/min Speed: 112 Knots
09:25 VATSIM:LIEA 230850Z 29008KT 260V340 9999 BKN020 13/10 Q1010
09:25 Land
09:25 Wind:297º@008 Knots
09:25 Heading: 203º
09:25 Flight Duration: 00:57
09:25 Landing Weight: 58480 Lbs
09:25 POS N40º 38´ 01´´ E008º 17´ 30´´
09:29 Parking brakes on
09:29 Block to Block Duration: 01:05
09:29 Final Fuel: 3692 Lbls
09:29 Spent Fuel: 4821 Lbls
09:29 Flight Length: 348 NM
09:29 TOD Land Length: 71 NM

Exportar CSV

Powered by Drupal - Modified by Danger4k